createdAt,value
2019-01-20T00:00:10.795Z,9.13
2019-01-20T00:02:42.269Z,8.93
2019-01-20T00:05:14.642Z,8.40
2019-01-20T00:07:45.946Z,8.53
2019-01-20T00:10:17.320Z,8.83
2019-01-20T00:12:48.669Z,10.07
2019-01-20T00:15:20.286Z,8.78
2019-01-20T00:17:51.589Z,9.30
2019-01-20T00:20:22.939Z,8.93
2019-01-20T00:22:54.318Z,9.27
2019-01-20T00:25:25.655Z,9.33
2019-01-20T00:27:56.982Z,9.40
2019-01-20T00:30:28.274Z,9.93
2019-01-20T00:32:59.610Z,9.00
2019-01-20T00:35:30.923Z,9.60
2019-01-20T00:38:02.230Z,8.70
2019-01-20T00:40:33.582Z,8.57
2019-01-20T00:43:05.079Z,8.40
2019-01-20T00:45:36.387Z,8.73
2019-01-20T00:48:07.702Z,9.10
2019-01-20T00:50:39.038Z,9.38
2019-01-20T00:53:10.321Z,8.43
2019-01-20T00:55:41.640Z,8.63
2019-01-20T00:58:12.927Z,8.60
2019-01-20T01:00:44.248Z,8.80
2019-01-20T01:03:15.563Z,9.25
2019-01-20T01:05:46.864Z,8.13
2019-01-20T01:08:18.220Z,8.38
2019-01-20T01:10:49.592Z,7.90
2019-01-20T01:13:22.336Z,8.63
2019-01-20T01:15:53.633Z,8.25
2019-01-20T01:18:24.953Z,8.85
2019-01-20T01:20:56.230Z,8.18
2019-01-20T01:23:27.500Z,8.70
2019-01-20T01:25:58.803Z,8.28
2019-01-20T01:28:30.081Z,7.93
2019-01-20T01:31:01.452Z,7.92
2019-01-20T01:33:32.737Z,8.90
2019-01-20T01:36:04.109Z,8.20
2019-01-20T01:38:35.404Z,7.65
2019-01-20T01:41:06.744Z,8.48
2019-01-20T01:43:38.135Z,7.95
2019-01-20T01:46:09.402Z,8.13
2019-01-20T01:48:40.771Z,7.30
2019-01-20T01:51:12.113Z,8.63
2019-01-20T01:53:43.401Z,7.50
2019-01-20T01:56:14.781Z,8.00
2019-01-20T01:58:46.089Z,8.15
2019-01-20T02:01:17.385Z,7.87
2019-01-20T02:03:48.681Z,7.95
2019-01-20T02:06:20.024Z,7.70
2019-01-20T02:08:51.349Z,7.75
2019-01-20T02:11:22.657Z,8.03
2019-01-20T02:13:53.982Z,8.00
2019-01-20T02:16:25.272Z,8.23
2019-01-20T02:18:56.573Z,7.97
2019-01-20T02:21:27.921Z,8.10
2019-01-20T02:23:59.207Z,8.33
2019-01-20T02:26:30.499Z,7.85
2019-01-20T02:29:01.895Z,7.58
2019-01-20T02:31:33.172Z,8.10
2019-01-20T02:34:04.530Z,8.13
2019-01-20T02:36:35.826Z,7.95
2019-01-20T02:39:09.175Z,7.72
2019-01-20T02:41:40.482Z,7.97
2019-01-20T02:44:11.790Z,7.97
2019-01-20T02:46:43.037Z,7.53
2019-01-20T02:49:14.344Z,8.00
2019-01-20T02:51:45.658Z,8.13
2019-01-20T02:54:16.915Z,7.92
2019-01-20T02:56:48.226Z,8.45
2019-01-20T02:59:19.531Z,7.22
2019-01-20T03:01:50.892Z,7.90
2019-01-20T03:04:22.233Z,8.23
2019-01-20T03:06:53.538Z,8.23
2019-01-20T03:09:24.900Z,7.65
2019-01-20T03:12:03.488Z,7.97
2019-01-20T03:14:29.192Z,7.50
2019-01-20T03:17:00.499Z,7.35
2019-01-20T03:19:31.874Z,7.58
2019-01-20T03:22:03.203Z,7.58
2019-01-20T03:24:34.489Z,7.85
2019-01-20T03:27:06.044Z,8.08
2019-01-20T03:29:37.321Z,7.50
2019-01-20T03:32:08.597Z,7.10
2019-01-20T03:34:39.902Z,8.00
2019-01-20T03:37:11.250Z,7.62
2019-01-20T03:39:42.496Z,7.67
2019-01-20T03:42:13.767Z,7.42
2019-01-20T03:44:45.120Z,7.75
2019-01-20T03:47:16.382Z,7.50
2019-01-20T03:49:47.690Z,7.17
2019-01-20T03:52:18.990Z,7.87
2019-01-20T03:54:50.272Z,7.03
2019-01-20T03:57:21.567Z,7.70
2019-01-20T03:59:52.853Z,7.12
2019-01-20T04:02:24.604Z,7.22
2019-01-20T04:04:55.927Z,8.00
2019-01-20T04:07:27.207Z,7.90
2019-01-20T04:09:58.489Z,7.60
2019-01-20T04:12:29.796Z,6.92
2019-01-20T04:15:01.075Z,7.80
2019-01-20T04:17:32.357Z,8.40
2019-01-20T04:20:03.714Z,7.53
2019-01-20T04:22:34.988Z,7.72
2019-01-20T04:25:08.983Z,7.53
2019-01-20T04:27:40.257Z,6.67
2019-01-20T04:30:14.519Z,6.55
2019-01-20T04:32:45.810Z,6.95
2019-01-20T04:35:17.101Z,6.80
2019-01-20T04:37:48.420Z,6.33
2019-01-20T04:40:22.470Z,7.20
2019-01-20T04:42:53.757Z,6.97
2019-01-20T04:45:25.155Z,7.08
2019-01-20T04:47:56.412Z,6.78
2019-01-20T04:50:27.689Z,6.70
2019-01-20T04:52:58.988Z,7.33
2019-01-20T04:55:30.274Z,7.53
2019-01-20T04:58:01.674Z,7.28
2019-01-20T05:00:32.977Z,7.28
2019-01-20T05:03:04.435Z,6.55
2019-01-20T05:05:35.736Z,6.70
2019-01-20T05:08:07.024Z,6.95
2019-01-20T05:10:38.324Z,6.62
2019-01-20T05:13:09.607Z,7.47
2019-01-20T05:15:40.902Z,6.65
2019-01-20T05:18:12.198Z,7.12
2019-01-20T05:20:43.483Z,7.53
2019-01-20T05:23:14.832Z,7.45
2019-01-20T05:25:46.111Z,6.83
2019-01-20T05:28:17.405Z,6.95
2019-01-20T05:30:48.697Z,7.15
2019-01-20T05:33:20.026Z,7.22
2019-01-20T05:35:51.286Z,7.50
2019-01-20T05:38:22.592Z,7.10
2019-01-20T05:40:53.855Z,7.30
2019-01-20T05:43:25.162Z,7.08
2019-01-20T05:45:56.502Z,6.25
2019-01-20T05:48:27.804Z,6.97
2019-01-20T05:50:59.103Z,6.83
2019-01-20T05:53:30.414Z,6.83
2019-01-20T05:56:02.019Z,7.20
2019-01-20T05:58:33.442Z,7.05
2019-01-20T06:01:04.770Z,6.80
2019-01-20T06:03:36.014Z,6.53
2019-01-20T06:06:07.348Z,6.47
2019-01-20T06:08:38.684Z,6.67
2019-01-20T06:11:09.938Z,6.28
2019-01-20T06:13:41.305Z,6.22
2019-01-20T06:16:12.554Z,6.95
2019-01-20T06:18:43.844Z,6.67
2019-01-20T06:21:15.178Z,6.35
2019-01-20T06:23:46.481Z,6.60
2019-01-20T06:26:17.795Z,7.62
2019-01-20T06:28:49.092Z,6.97
2019-01-20T06:31:20.371Z,7.12
2019-01-20T06:33:51.716Z,6.87
2019-01-20T06:36:23.035Z,6.40
2019-01-20T06:38:54.342Z,6.95
2019-01-20T06:41:25.669Z,7.60
2019-01-20T06:43:56.962Z,7.42
2019-01-20T06:46:28.274Z,7.33
2019-01-20T06:49:02.438Z,8.15
2019-01-20T06:51:33.695Z,7.85
2019-01-20T06:54:05.017Z,7.37
2019-01-20T06:56:36.297Z,7.65
2019-01-20T06:59:07.636Z,7.45
2019-01-20T07:01:38.902Z,8.10
2019-01-20T07:04:10.215Z,7.80
2019-01-20T07:06:41.526Z,7.33
2019-01-20T07:09:12.828Z,7.00
2019-01-20T07:11:44.116Z,6.70
2019-01-20T07:14:15.406Z,6.25
2019-01-20T07:16:46.684Z,6.08
2019-01-20T07:19:17.958Z,6.58
2019-01-20T07:21:49.248Z,6.62
2019-01-20T07:24:20.576Z,6.55
2019-01-20T07:26:51.875Z,6.20
2019-01-20T07:29:24.696Z,6.47
2019-01-20T07:31:56.114Z,5.87
2019-01-20T07:34:27.511Z,7.10
2019-01-20T07:36:58.847Z,6.10
2019-01-20T07:39:30.181Z,6.42
2019-01-20T07:42:01.475Z,6.67
2019-01-20T07:44:32.776Z,7.33
2019-01-20T07:47:04.092Z,6.05
2019-01-20T07:49:35.413Z,6.47
2019-01-20T07:52:06.687Z,7.07
2019-01-20T07:54:37.984Z,6.93
2019-01-20T07:57:09.277Z,8.13
2019-01-20T07:59:40.541Z,6.60
2019-01-20T08:02:11.833Z,6.33
2019-01-20T08:04:43.098Z,6.40
2019-01-20T08:07:14.367Z,6.67
2019-01-20T08:09:45.658Z,6.70
2019-01-20T08:12:23.368Z,7.17
2019-01-20T08:14:49.923Z,6.60
2019-01-20T08:17:21.177Z,6.90
2019-01-20T08:19:52.484Z,6.70
2019-01-20T08:22:23.760Z,7.27
2019-01-20T08:24:55.033Z,6.67
2019-01-20T08:27:26.321Z,6.80
2019-01-20T08:29:57.563Z,7.20
2019-01-20T08:32:28.899Z,6.93
2019-01-20T08:35:00.264Z,6.60
2019-01-20T08:37:31.524Z,6.83
2019-01-20T08:40:02.831Z,7.00
2019-01-20T08:42:34.123Z,7.67
2019-01-20T08:45:08.383Z,7.10
2019-01-20T08:47:46.345Z,6.60
2019-01-20T08:50:18.448Z,7.17
2019-01-20T08:52:49.759Z,7.40
2019-01-20T08:55:21.063Z,7.10
2019-01-20T08:57:52.355Z,7.30
2019-01-20T09:00:23.742Z,6.57
2019-01-20T09:02:55.049Z,7.00
2019-01-20T09:05:26.299Z,6.30
2019-01-20T09:07:57.560Z,5.67
2019-01-20T09:10:29.487Z,7.23
2019-01-20T09:13:02.895Z,6.33
2019-01-20T09:15:34.146Z,5.87
2019-01-20T09:18:05.799Z,6.00
2019-01-20T09:20:37.168Z,5.93
2019-01-20T09:23:08.416Z,6.60
2019-01-20T09:25:39.705Z,6.10
2019-01-20T09:28:10.996Z,6.57
2019-01-20T09:30:42.290Z,6.53
2019-01-20T09:33:13.617Z,6.90
2019-01-20T09:35:44.900Z,6.70
2019-01-20T09:38:16.211Z,6.80
2019-01-20T09:40:47.487Z,7.90
2019-01-20T09:43:18.741Z,7.57
2019-01-20T09:45:51.140Z,7.40
2019-01-20T09:48:22.419Z,6.37
2019-01-20T09:50:53.722Z,6.50
2019-01-20T09:53:25.125Z,7.03
2019-01-20T09:55:56.403Z,6.57
2019-01-20T09:58:27.641Z,7.23
2019-01-20T10:00:58.941Z,6.90
2019-01-20T10:03:30.306Z,7.10
2019-01-20T10:06:01.605Z,6.77
2019-01-20T10:08:32.957Z,6.60
2019-01-20T10:11:04.353Z,6.77
2019-01-20T10:13:35.661Z,6.90
2019-01-20T10:16:06.928Z,6.70
2019-01-20T10:18:38.223Z,6.67
2019-01-20T10:21:09.500Z,6.50
2019-01-20T10:23:40.775Z,6.97
2019-01-20T10:26:12.083Z,6.30
2019-01-20T10:28:43.362Z,6.53
2019-01-20T10:31:14.648Z,6.07
2019-01-20T10:33:45.902Z,7.43
2019-01-20T10:36:17.227Z,6.60
2019-01-20T10:38:48.526Z,6.23
2019-01-20T10:41:19.839Z,5.90
2019-01-20T10:43:51.129Z,6.10
2019-01-20T10:46:22.447Z,6.20
2019-01-20T10:48:53.757Z,6.23
2019-01-20T10:51:25.046Z,5.60
2019-01-20T10:53:56.376Z,5.63
2019-01-20T10:56:27.692Z,6.00
2019-01-20T10:59:01.081Z,5.37
2019-01-20T11:01:32.429Z,5.23
2019-01-20T11:04:03.869Z,5.63
2019-01-20T11:06:35.314Z,5.47
2019-01-20T11:09:08.153Z,5.57
2019-01-20T11:11:39.441Z,5.23
2019-01-20T11:14:10.739Z,5.13
2019-01-20T11:16:42.033Z,5.13
2019-01-20T11:19:13.322Z,5.57
2019-01-20T11:21:44.646Z,5.27
2019-01-20T11:24:15.957Z,5.47
2019-01-20T11:26:47.288Z,5.40
2019-01-20T11:29:18.600Z,5.20
2019-01-20T11:31:49.894Z,5.57
2019-01-20T11:34:21.140Z,5.37
2019-01-20T11:36:52.495Z,5.77
2019-01-20T11:39:23.766Z,5.70
2019-01-20T11:41:55.084Z,5.30
2019-01-20T11:44:26.433Z,5.33
2019-01-20T11:46:57.741Z,5.80
2019-01-20T11:49:29.039Z,5.20
2019-01-20T11:52:00.360Z,5.90
2019-01-20T11:54:31.671Z,5.70
2019-01-20T11:57:02.952Z,4.80
2019-01-20T11:59:34.245Z,5.30
2019-01-20T12:02:06.158Z,5.70
2019-01-20T12:04:37.653Z,5.20
2019-01-20T12:07:08.966Z,4.83
2019-01-20T12:09:40.278Z,4.90
2019-01-20T12:12:11.568Z,4.60
2019-01-20T12:14:42.918Z,4.37
2019-01-20T12:17:14.307Z,4.67
2019-01-20T12:19:45.668Z,4.93
2019-01-20T12:22:16.970Z,4.67
2019-01-20T12:24:48.354Z,4.13
2019-01-20T12:27:19.731Z,3.90
2019-01-20T12:29:51.973Z,4.00
2019-01-20T12:32:23.695Z,4.60
2019-01-20T12:34:56.567Z,3.93
2019-01-20T12:37:27.954Z,4.00
2019-01-20T12:39:59.323Z,4.40
2019-01-20T12:42:32.711Z,3.90
2019-01-20T12:45:04.369Z,4.30
2019-01-20T12:47:35.696Z,4.00
2019-01-20T12:50:09.649Z,4.27
2019-01-20T12:52:40.946Z,4.80
2019-01-20T12:55:13.277Z,4.37
2019-01-20T12:57:44.732Z,4.60
2019-01-20T13:00:18.273Z,4.70
2019-01-20T13:02:49.640Z,4.33
2019-01-20T13:05:21.034Z,4.87
2019-01-20T13:07:52.325Z,4.10
2019-01-20T13:10:23.665Z,4.20
2019-01-20T13:12:54.875Z,4.37
2019-01-20T13:15:26.152Z,4.60
2019-01-20T13:17:57.383Z,4.47
2019-01-20T13:20:28.763Z,4.70
2019-01-20T13:23:01.019Z,4.40
2019-01-20T13:25:32.893Z,4.53
2019-01-20T13:28:04.325Z,4.50
2019-01-20T13:30:35.677Z,4.60
2019-01-20T13:33:07.042Z,4.30
2019-01-20T13:35:38.344Z,4.67
2019-01-20T13:38:16.651Z,4.27
2019-01-20T13:41:29.219Z,4.40
2019-01-20T13:44:00.770Z,4.40
2019-01-20T13:46:32.058Z,4.60
2019-01-20T13:49:03.330Z,4.70
2019-01-20T13:51:34.679Z,5.03
2019-01-20T13:54:06.114Z,4.60
2019-01-20T13:56:37.410Z,4.57
2019-01-20T13:59:08.654Z,4.60
2019-01-20T14:01:39.901Z,4.87
2019-01-20T14:04:11.208Z,4.67
2019-01-20T14:06:42.502Z,4.50
2019-01-20T14:09:13.788Z,4.90
2019-01-20T14:11:45.080Z,5.50
2019-01-20T14:14:16.358Z,5.00
2019-01-20T14:16:47.630Z,5.13
2019-01-20T14:19:21.813Z,5.40
2019-01-20T14:21:51.965Z,6.00
2019-01-20T14:24:23.314Z,5.83
2019-01-20T14:26:54.645Z,5.47
2019-01-20T14:29:25.976Z,6.27
2019-01-20T14:31:57.315Z,6.50
2019-01-20T14:34:28.626Z,5.97
2019-01-20T14:36:59.908Z,5.83
2019-01-20T14:39:31.198Z,5.63
2019-01-20T14:42:02.513Z,6.00
2019-01-20T14:44:33.798Z,5.90
2019-01-20T14:47:05.081Z,6.27
2019-01-20T14:49:36.394Z,6.37
2019-01-20T14:52:07.695Z,6.70
2019-01-20T14:54:39.001Z,6.37
2019-01-20T14:57:10.273Z,6.60
2019-01-20T14:59:41.608Z,6.00
2019-01-20T15:02:12.888Z,7.03
2019-01-20T15:04:44.189Z,6.27
2019-01-20T15:07:15.479Z,6.40
2019-01-20T15:09:46.771Z,7.10
2019-01-20T15:12:18.068Z,6.40
2019-01-20T15:14:49.490Z,6.07
2019-01-20T15:17:20.783Z,6.40
2019-01-20T15:19:52.073Z,7.00
2019-01-20T15:22:23.370Z,6.73
2019-01-20T15:24:54.673Z,7.10
2019-01-20T15:27:25.974Z,6.43
2019-01-20T15:29:57.306Z,7.10
2019-01-20T15:32:28.597Z,6.83
2019-01-20T15:34:59.884Z,7.37
2019-01-20T15:37:31.206Z,13.83
2019-01-20T15:40:02.494Z,9.13
2019-01-20T15:42:33.779Z,7.43
2019-01-20T15:45:05.698Z,7.13
2019-01-20T15:47:36.973Z,7.07
2019-01-20T15:50:12.685Z,7.37
2019-01-20T15:52:44.005Z,7.40
2019-01-20T15:55:15.489Z,7.03
2019-01-20T15:57:46.934Z,7.17
2019-01-20T16:00:21.489Z,7.80
2019-01-20T16:02:52.781Z,8.20
2019-01-20T16:05:25.502Z,8.13
2019-01-20T16:07:56.808Z,8.50
2019-01-20T16:10:28.129Z,9.03
2019-01-20T16:12:59.398Z,7.87
2019-01-20T16:15:39.939Z,8.60
2019-01-20T16:18:14.378Z,8.67
2019-01-20T16:20:44.180Z,7.73
2019-01-20T16:23:15.481Z,8.77
2019-01-20T16:25:46.812Z,8.80
2019-01-20T16:28:18.161Z,8.30
2019-01-20T16:30:49.424Z,8.37
2019-01-20T16:33:24.919Z,8.30
2019-01-20T16:35:53.763Z,8.97
2019-01-20T16:38:25.055Z,8.83
2019-01-20T16:40:56.360Z,8.83
2019-01-20T16:43:27.692Z,9.03
2019-01-20T16:45:58.984Z,9.90
2019-01-20T16:48:30.277Z,9.03
2019-01-20T16:51:01.595Z,9.27
2019-01-20T16:53:32.832Z,9.97
2019-01-20T16:56:04.136Z,9.90
2019-01-20T16:58:35.484Z,11.47
2019-01-20T17:01:06.823Z,11.70
2019-01-20T17:03:38.161Z,8.87
2019-01-20T17:06:09.431Z,9.63
2019-01-20T17:08:40.727Z,9.60
2019-01-20T17:11:12.078Z,9.30
2019-01-20T17:13:43.643Z,9.40
2019-01-20T17:16:15.001Z,9.10
2019-01-20T17:18:46.413Z,9.47
2019-01-20T17:21:17.716Z,9.27
2019-01-20T17:23:49.052Z,8.73
2019-01-20T17:26:20.389Z,8.83
2019-01-20T17:28:51.702Z,8.50
2019-01-20T17:31:23.059Z,9.17
2019-01-20T17:33:54.331Z,8.87
2019-01-20T17:36:25.679Z,8.50
2019-01-20T17:38:57.041Z,13.97
2019-01-20T17:41:28.328Z,11.80
2019-01-20T17:43:59.703Z,10.37
2019-01-20T17:46:31.034Z,10.10
2019-01-20T17:49:02.395Z,9.63
2019-01-20T17:51:41.799Z,9.20
2019-01-20T17:54:13.070Z,9.10
2019-01-20T17:56:44.411Z,9.40
2019-01-20T17:59:15.726Z,9.63
2019-01-20T18:01:47.025Z,8.73
2019-01-20T18:04:18.350Z,8.90
2019-01-20T18:06:49.720Z,8.67
2019-01-20T18:09:21.034Z,9.30
2019-01-20T18:11:52.331Z,8.87
2019-01-20T18:14:23.654Z,8.43
2019-01-20T18:16:54.954Z,8.70
2019-01-20T18:19:26.308Z,8.37
2019-01-20T18:21:57.595Z,8.40
2019-01-20T18:24:28.918Z,9.53
2019-01-20T18:27:00.278Z,9.90
2019-01-20T18:29:31.562Z,9.07
2019-01-20T18:32:02.898Z,10.03
2019-01-20T18:34:34.187Z,10.27
2019-01-20T18:37:05.645Z,9.33
2019-01-20T18:39:36.882Z,9.33
2019-01-20T18:42:08.276Z,10.90
2019-01-20T18:44:39.575Z,9.30
2019-01-20T18:47:10.835Z,10.60
2019-01-20T18:49:42.224Z,9.43
2019-01-20T18:52:13.547Z,8.23
2019-01-20T18:54:44.875Z,10.10
2019-01-20T18:57:16.215Z,23.53
2019-01-20T18:59:47.510Z,9.63
2019-01-20T19:02:18.821Z,8.67
2019-01-20T19:04:50.187Z,8.90
2019-01-20T19:07:21.475Z,9.23
2019-01-20T19:09:52.844Z,8.80
2019-01-20T19:12:24.163Z,9.97
2019-01-20T19:14:55.459Z,10.33
2019-01-20T19:17:26.811Z,9.27
2019-01-20T19:19:58.115Z,9.57
2019-01-20T19:22:29.461Z,10.60
2019-01-20T19:25:00.787Z,10.40
2019-01-20T19:27:35.412Z,10.40
2019-01-20T19:30:14.458Z,10.97
2019-01-20T19:32:45.762Z,10.70
2019-01-20T19:35:17.166Z,9.93
2019-01-20T19:37:48.506Z,9.83
2019-01-20T19:40:19.854Z,9.37
2019-01-20T19:42:51.182Z,9.43
2019-01-20T19:45:22.707Z,10.67
2019-01-20T19:47:56.953Z,12.87
2019-01-20T19:50:28.254Z,10.60
2019-01-20T19:52:59.637Z,14.23
2019-01-20T19:55:35.108Z,12.27
2019-01-20T19:58:06.728Z,11.67
2019-01-20T20:00:38.224Z,14.83
2019-01-20T20:03:10.673Z,12.30
2019-01-20T20:05:42.007Z,11.27
2019-01-20T20:08:13.392Z,10.37
2019-01-20T20:10:44.804Z,10.43
2019-01-20T20:13:16.113Z,9.80
2019-01-20T20:15:50.242Z,9.80
2019-01-20T20:18:24.557Z,10.70
2019-01-20T20:20:55.905Z,10.60
2019-01-20T20:23:27.314Z,10.70
2019-01-20T20:25:58.775Z,12.73
2019-01-20T20:28:30.155Z,12.00
2019-01-20T20:31:01.556Z,11.93
2019-01-20T20:33:32.946Z,11.07
2019-01-20T20:36:04.390Z,11.50
2019-01-20T20:38:35.687Z,11.57
2019-01-20T20:41:07.059Z,12.40
2019-01-20T20:43:38.480Z,11.83
2019-01-20T20:46:09.864Z,12.43
2019-01-20T20:48:41.209Z,11.73
2019-01-20T20:51:12.602Z,11.93
2019-01-20T20:53:43.993Z,12.33
2019-01-20T20:56:15.401Z,11.47
2019-01-20T20:58:46.737Z,11.60
2019-01-20T21:01:19.684Z,12.00
2019-01-20T21:03:51.090Z,12.63
2019-01-20T21:06:22.467Z,12.77
2019-01-20T21:08:53.775Z,12.07
2019-01-20T21:11:25.111Z,12.00
2019-01-20T21:13:56.463Z,11.73
2019-01-20T21:16:27.823Z,12.73
2019-01-20T21:19:02.415Z,12.63
2019-01-20T21:21:33.717Z,12.73
2019-01-20T21:24:05.169Z,12.40
2019-01-20T21:26:36.475Z,14.13
2019-01-20T21:29:07.802Z,13.43
2019-01-20T21:31:39.033Z,13.87
2019-01-20T21:34:10.350Z,14.30
2019-01-20T21:36:41.589Z,14.00
2019-01-20T21:39:12.912Z,13.83
2019-01-20T21:41:44.213Z,12.53
2019-01-20T21:44:15.513Z,11.93
2019-01-20T21:46:46.814Z,11.90
2019-01-20T21:49:18.099Z,11.30
2019-01-20T21:51:49.395Z,11.47
2019-01-20T21:54:20.729Z,11.40
2019-01-20T21:56:55.054Z,12.40
2019-01-20T21:59:26.345Z,12.20
2019-01-20T22:01:57.674Z,12.43
2019-01-20T22:04:28.969Z,11.90
2019-01-20T22:07:00.257Z,16.37
2019-01-20T22:09:31.578Z,13.67
2019-01-20T22:12:02.939Z,14.97
2019-01-20T22:14:34.278Z,13.30
2019-01-20T22:17:08.685Z,13.38
2019-01-20T22:19:39.982Z,13.43
2019-01-20T22:22:11.299Z,13.13
2019-01-20T22:24:42.618Z,12.73
2019-01-20T22:27:13.882Z,12.53
2019-01-20T22:29:45.181Z,12.50
2019-01-20T22:32:16.466Z,12.40
2019-01-20T22:34:47.767Z,12.80
2019-01-20T22:37:19.072Z,13.43
2019-01-20T22:39:50.349Z,13.57
2019-01-20T22:42:21.675Z,12.45
2019-01-20T22:44:53.037Z,11.90
2019-01-20T22:47:24.338Z,13.00
2019-01-20T22:49:55.678Z,13.60
2019-01-20T22:52:27.018Z,13.78
2019-01-20T22:54:58.340Z,13.08
2019-01-20T22:57:29.617Z,13.07
2019-01-20T23:00:00.932Z,13.43
2019-01-20T23:02:32.289Z,13.95
2019-01-20T23:05:03.585Z,16.50
2019-01-20T23:07:34.933Z,31.05
2019-01-20T23:10:07.260Z,34.53
2019-01-20T23:12:38.569Z,23.00
2019-01-20T23:15:10.587Z,16.87
2019-01-20T23:17:41.905Z,17.57
2019-01-20T23:20:15.375Z,16.10
2019-01-20T23:22:46.676Z,17.20
2019-01-20T23:25:18.031Z,21.05
2019-01-20T23:27:49.431Z,24.00
2019-01-20T23:30:20.766Z,21.70
2019-01-20T23:32:55.215Z,20.55
2019-01-20T23:35:26.511Z,17.80
2019-01-20T23:37:57.806Z,17.27
2019-01-20T23:40:29.159Z,18.95
2019-01-20T23:43:00.528Z,21.02
2019-01-20T23:45:31.853Z,22.30
2019-01-20T23:48:03.162Z,28.07
2019-01-20T23:50:34.595Z,34.80
2019-01-20T23:53:06.109Z,33.10
2019-01-20T23:55:37.739Z,24.77
2019-01-20T23:58:09.140Z,18.25
